createdAt,value
2023-03-26T00:01:25.463Z,8.90
2023-03-26T00:03:55.381Z,8.90
2023-03-26T00:06:25.268Z,8.90
2023-03-26T00:08:55.703Z,8.90
2023-03-26T00:11:23.700Z,8.90
2023-03-26T00:13:56.792Z,8.90
2023-03-26T00:16:25.966Z,8.90
2023-03-26T00:18:55.039Z,8.90
2023-03-26T00:21:27.858Z,8.90
2023-03-26T00:23:56.115Z,8.90
2023-03-26T00:26:24.035Z,8.90
2023-03-26T00:28:52.394Z,8.90
2023-03-26T00:31:19.782Z,8.90
2023-03-26T00:33:47.690Z,8.90
2023-03-26T00:36:17.972Z,8.90
2023-03-26T00:38:46.834Z,8.90
2023-03-26T00:41:24.966Z,8.90
2023-03-26T00:43:56.504Z,8.90
2023-03-26T00:46:24.394Z,8.80
2023-03-26T00:48:54.597Z,8.80
2023-03-26T00:51:22.072Z,8.80
2023-03-26T00:53:50.686Z,8.80
2023-03-26T00:56:18.761Z,8.80
2023-03-26T00:58:47.584Z,8.80
2023-03-26T01:01:19.066Z,8.80
2023-03-26T01:03:57.130Z,8.80
2023-03-26T01:06:37.861Z,8.80
2023-03-26T01:09:12.707Z,8.90
2023-03-26T01:11:40.645Z,8.90
2023-03-26T01:14:12.801Z,8.90
2023-03-26T01:16:46.013Z,8.90
2023-03-26T01:19:21.157Z,8.90
2023-03-26T01:21:59.399Z,8.90
2023-03-26T01:24:28.235Z,8.90
2023-03-26T01:27:12.212Z,8.90
2023-03-26T01:29:57.072Z,8.90
2023-03-26T01:32:47.748Z,8.90
2023-03-26T01:35:40.931Z,8.90
2023-03-26T01:38:24.978Z,8.90
2023-03-26T01:41:00.625Z,8.90
2023-03-26T01:43:36.360Z,8.90
2023-03-26T01:46:08.055Z,8.90
2023-03-26T01:48:37.094Z,8.90
2023-03-26T01:51:05.175Z,8.90
2023-03-26T01:53:33.425Z,8.90
2023-03-26T01:56:13.304Z,9.00
2023-03-26T01:58:55.278Z,9.00
2023-03-26T02:01:30.279Z,9.00
2023-03-26T02:04:07.827Z,9.00
2023-03-26T02:06:44.509Z,9.00
2023-03-26T02:09:15.995Z,9.00
2023-03-26T02:11:46.740Z,9.00
2023-03-26T02:14:18.628Z,9.00
2023-03-26T02:16:46.852Z,9.00
2023-03-26T02:19:22.949Z,9.00
2023-03-26T02:21:51.479Z,9.00
2023-03-26T02:24:19.083Z,9.00
2023-03-26T02:26:47.301Z,9.00
2023-03-26T02:29:19.277Z,9.00
2023-03-26T02:31:48.175Z,9.00
2023-03-26T02:34:15.603Z,9.00
2023-03-26T02:36:43.603Z,9.00
2023-03-26T02:39:11.958Z,9.10
2023-03-26T02:41:39.598Z,9.00
2023-03-26T02:44:07.989Z,9.00
2023-03-26T02:46:35.314Z,9.00
2023-03-26T02:49:02.288Z,9.10
2023-03-26T02:51:29.095Z,9.10
2023-03-26T02:53:58.067Z,9.10
2023-03-26T02:56:25.403Z,9.10
2023-03-26T02:58:52.285Z,9.10
2023-03-26T03:01:25.887Z,9.10
2023-03-26T03:03:52.765Z,9.10
2023-03-26T03:06:19.705Z,9.10
2023-03-26T03:08:46.703Z,9.00
2023-03-26T03:11:16.400Z,9.10
2023-03-26T03:13:44.500Z,9.10
2023-03-26T03:16:11.368Z,9.10
2023-03-26T03:18:39.738Z,9.10
2023-03-26T03:21:06.779Z,9.10
2023-03-26T03:23:33.670Z,9.10
2023-03-26T03:26:02.582Z,9.10
2023-03-26T03:28:30.476Z,9.10
2023-03-26T03:30:57.974Z,9.10
2023-03-26T03:33:25.255Z,9.10
2023-03-26T03:35:53.929Z,9.10
2023-03-26T03:38:20.916Z,9.10
2023-03-26T03:40:48.225Z,9.10
2023-03-26T03:43:15.269Z,9.10
2023-03-26T03:45:42.484Z,9.10
2023-03-26T03:48:09.361Z,9.10
2023-03-26T03:50:36.604Z,9.10
2023-03-26T03:53:06.012Z,9.10
2023-03-26T03:55:32.939Z,9.20
2023-03-26T03:58:00.743Z,9.10
2023-03-26T04:00:27.843Z,9.10
2023-03-26T04:02:56.226Z,9.10
2023-03-26T04:05:23.559Z,9.10
2023-03-26T04:07:50.595Z,9.10
2023-03-26T04:10:20.383Z,9.10
2023-03-26T04:12:50.027Z,9.10
2023-03-26T04:15:17.108Z,9.10
2023-03-26T04:17:44.903Z,9.10
2023-03-26T04:20:16.117Z,9.10
2023-03-26T04:22:43.617Z,9.10
2023-03-26T04:25:11.564Z,9.10
2023-03-26T04:27:41.779Z,9.10
2023-03-26T04:30:16.565Z,9.20
2023-03-26T04:32:44.821Z,9.20
2023-03-26T04:35:14.492Z,9.20
2023-03-26T04:37:44.226Z,9.10
2023-03-26T04:40:15.482Z,9.10
2023-03-26T04:42:46.663Z,9.10
2023-03-26T04:45:14.694Z,9.20
2023-03-26T04:47:41.849Z,9.20
2023-03-26T04:50:11.170Z,9.20
2023-03-26T04:52:38.845Z,9.20
2023-03-26T04:55:25.807Z,9.20
2023-03-26T04:57:57.213Z,9.10
2023-03-26T05:00:25.416Z,9.10
2023-03-26T05:02:57.366Z,9.10
2023-03-26T05:05:24.871Z,9.10
2023-03-26T05:07:52.484Z,9.10
2023-03-26T05:10:20.634Z,9.10
2023-03-26T05:12:47.648Z,9.10
2023-03-26T05:15:16.583Z,9.10
2023-03-26T05:17:43.536Z,9.00
2023-03-26T05:20:18.332Z,9.00
2023-03-26T05:22:45.341Z,9.00
2023-03-26T05:25:12.767Z,9.00
2023-03-26T05:27:40.458Z,9.00
2023-03-26T05:30:08.437Z,8.90
2023-03-26T05:32:36.706Z,8.90
2023-03-26T05:35:04.710Z,8.90
2023-03-26T05:37:31.898Z,8.90
2023-03-26T05:39:59.909Z,8.90
2023-03-26T05:42:27.073Z,8.90
2023-03-26T05:44:53.972Z,8.90
2023-03-26T05:47:20.890Z,8.90
2023-03-26T05:49:49.377Z,8.90
2023-03-26T05:52:18.985Z,8.80
2023-03-26T05:54:45.936Z,8.80
2023-03-26T05:57:12.840Z,8.80
2023-03-26T05:59:39.738Z,8.80
2023-03-26T06:02:07.280Z,8.70
2023-03-26T06:04:34.199Z,8.70
2023-03-26T06:07:03.903Z,8.70
2023-03-26T06:09:31.006Z,8.70
2023-03-26T06:11:57.883Z,8.70
2023-03-26T06:14:25.448Z,8.70
2023-03-26T06:16:52.363Z,8.70
2023-03-26T06:19:19.352Z,8.70
2023-03-26T06:21:46.221Z,8.70
2023-03-26T06:24:16.407Z,8.70
2023-03-26T06:26:43.974Z,8.70
2023-03-26T06:29:10.912Z,8.80
2023-03-26T06:31:38.006Z,8.80
2023-03-26T06:34:04.918Z,8.80
2023-03-26T06:36:47.945Z,8.70
2023-03-26T06:39:16.522Z,8.80
2023-03-26T06:41:43.923Z,8.80
2023-03-26T06:44:11.358Z,8.70
2023-03-26T06:46:38.703Z,8.70
2023-03-26T06:49:06.047Z,8.70
2023-03-26T06:51:33.121Z,8.70
2023-03-26T06:54:00.389Z,8.70
2023-03-26T06:56:28.667Z,8.80
2023-03-26T06:58:56.060Z,8.80
2023-03-26T07:01:22.961Z,8.80
2023-03-26T07:03:50.006Z,8.80
2023-03-26T07:06:16.944Z,8.90
2023-03-26T07:08:46.283Z,8.90
2023-03-26T07:11:13.260Z,8.90
2023-03-26T07:13:41.773Z,8.90
2023-03-26T07:16:09.557Z,8.90
2023-03-26T07:18:46.081Z,8.90
2023-03-26T07:21:13.907Z,8.90
2023-03-26T07:23:41.562Z,9.00
2023-03-26T07:26:25.472Z,9.00
2023-03-26T07:29:10.511Z,9.10
2023-03-26T07:31:45.971Z,9.10
2023-03-26T07:34:26.406Z,9.10
2023-03-26T07:37:01.139Z,9.10
2023-03-26T07:39:51.985Z,9.10
2023-03-26T07:42:30.906Z,9.20
2023-03-26T07:45:03.005Z,9.20
2023-03-26T07:47:33.153Z,9.20
2023-03-26T07:50:07.369Z,9.30
2023-03-26T07:52:34.918Z,9.30
2023-03-26T07:55:03.475Z,9.30
2023-03-26T07:57:38.639Z,9.30
2023-03-26T08:00:16.574Z,9.40
2023-03-26T08:03:05.959Z,9.40
2023-03-26T08:05:35.810Z,9.40
2023-03-26T08:08:16.825Z,9.40
2023-03-26T08:10:57.619Z,9.40
2023-03-26T08:13:30.568Z,9.40
2023-03-26T08:16:08.118Z,9.40
2023-03-26T08:18:45.594Z,9.50
2023-03-26T08:21:18.599Z,9.50
2023-03-26T08:23:55.050Z,9.50
2023-03-26T08:26:31.675Z,9.60
2023-03-26T08:29:07.215Z,9.60
2023-03-26T08:31:40.284Z,9.60
2023-03-26T08:34:15.530Z,9.70
2023-03-26T08:36:43.076Z,9.80
2023-03-26T08:39:10.180Z,9.80
2023-03-26T08:42:15.866Z,9.80
2023-03-26T08:45:14.627Z,9.80
2023-03-26T08:48:19.001Z,9.90
2023-03-26T08:51:23.065Z,9.80
2023-03-26T08:54:21.693Z,9.90
2023-03-26T08:57:00.406Z,9.90
2023-03-26T09:00:11.067Z,9.90
2023-03-26T09:03:06.149Z,9.90
2023-03-26T09:06:06.406Z,9.90
2023-03-26T09:09:18.762Z,9.90
2023-03-26T09:12:09.230Z,9.90
2023-03-26T09:14:58.262Z,9.90
2023-03-26T09:18:10.727Z,9.90
2023-03-26T09:21:02.352Z,9.90
2023-03-26T09:24:05.892Z,9.90
2023-03-26T09:26:45.564Z,9.90
2023-03-26T09:29:42.883Z,9.80
2023-03-26T09:32:52.881Z,9.80
2023-03-26T09:35:43.040Z,9.80
2023-03-26T09:38:27.756Z,9.70
2023-03-26T09:40:58.900Z,9.70
2023-03-26T09:44:10.305Z,9.70
2023-03-26T09:46:46.754Z,9.70
2023-03-26T09:49:44.004Z,9.70
2023-03-26T09:52:28.731Z,9.80
2023-03-26T09:55:29.530Z,9.80
2023-03-26T09:58:10.058Z,9.80
2023-03-26T10:00:48.114Z,9.80
2023-03-26T10:03:35.939Z,9.80
2023-03-26T10:06:26.771Z,9.90
2023-03-26T10:09:10.403Z,9.80
2023-03-26T10:12:04.634Z,9.70
2023-03-26T10:14:39.642Z,9.60
2023-03-26T10:17:33.652Z,9.50
2023-03-26T10:20:19.912Z,9.40
2023-03-26T10:22:59.154Z,9.40
2023-03-26T10:25:53.317Z,9.30
2023-03-26T10:28:51.876Z,9.30
2023-03-26T10:31:34.279Z,9.20
2023-03-26T10:34:28.728Z,9.20
2023-03-26T10:37:06.539Z,9.10
2023-03-26T10:40:06.038Z,9.10
2023-03-26T10:42:50.490Z,9.20
2023-03-26T10:45:51.809Z,9.10
2023-03-26T10:48:34.012Z,9.20
2023-03-26T10:51:34.582Z,9.20
2023-03-26T10:54:07.986Z,9.20
2023-03-26T10:56:40.081Z,9.10
2023-03-26T10:59:14.904Z,9.10
2023-03-26T11:01:51.148Z,9.10
2023-03-26T11:04:33.935Z,9.10
2023-03-26T11:07:16.200Z,9.10
2023-03-26T11:09:54.000Z,9.00
2023-03-26T11:12:29.347Z,9.00
2023-03-26T11:15:15.244Z,8.90
2023-03-26T11:17:56.697Z,8.90
2023-03-26T11:20:33.147Z,8.90
2023-03-26T11:23:23.074Z,8.90
2023-03-26T11:26:16.154Z,8.90
2023-03-26T11:29:32.135Z,8.90
2023-03-26T11:32:04.050Z,8.90
2023-03-26T11:34:37.771Z,8.90
2023-03-26T11:37:09.487Z,8.90
2023-03-26T11:39:46.830Z,8.90
2023-03-26T11:42:15.769Z,8.90
2023-03-26T11:44:46.880Z,8.90
2023-03-26T11:47:18.788Z,8.90
2023-03-26T11:49:50.171Z,8.90
2023-03-26T11:52:17.564Z,8.90
2023-03-26T11:54:48.223Z,8.90
2023-03-26T11:57:19.691Z,8.90
2023-03-26T11:59:57.689Z,8.90
2023-03-26T12:02:29.301Z,8.90
2023-03-26T12:05:20.859Z,8.90
2023-03-26T12:07:53.120Z,9.00
2023-03-26T12:10:33.216Z,9.00
2023-03-26T12:13:03.117Z,9.00
2023-03-26T12:15:34.486Z,9.10
2023-03-26T12:18:23.526Z,9.10
2023-03-26T12:21:03.473Z,9.10
2023-03-26T12:23:44.463Z,9.10
2023-03-26T12:26:18.338Z,9.10
2023-03-26T12:28:47.145Z,9.10
2023-03-26T12:31:18.485Z,9.20
2023-03-26T12:34:06.409Z,9.20
2023-03-26T12:36:35.889Z,9.20
2023-03-26T12:40:06.739Z,9.20
2023-03-26T12:44:44.458Z,9.30
2023-03-26T12:45:14.494Z,9.30
2023-03-26T12:48:00.659Z,9.40
2023-03-26T12:50:35.885Z,9.40
2023-03-26T12:53:19.433Z,9.40
2023-03-26T12:56:00.413Z,9.40
2023-03-26T12:59:03.955Z,9.40
2023-03-26T13:01:46.499Z,9.50
2023-03-26T13:04:34.445Z,9.60
2023-03-26T13:07:07.792Z,9.70
2023-03-26T13:09:56.582Z,9.90
2023-03-26T13:12:41.212Z,9.90
2023-03-26T13:15:22.058Z,10.10
2023-03-26T13:18:00.680Z,10.10
2023-03-26T13:20:35.053Z,10.10
2023-03-26T13:23:09.551Z,10.10
2023-03-26T13:25:48.165Z,10.20
2023-03-26T13:28:31.758Z,10.40
2023-03-26T13:31:05.948Z,10.50
2023-03-26T13:33:39.925Z,10.50
2023-03-26T13:36:23.052Z,10.70
2023-03-26T13:39:16.158Z,10.80
2023-03-26T13:42:03.685Z,10.90
2023-03-26T13:44:40.128Z,10.90
2023-03-26T13:47:18.698Z,11.00
2023-03-26T13:49:51.997Z,11.00
2023-03-26T13:52:30.816Z,11.00
2023-03-26T13:55:07.369Z,10.90
2023-03-26T13:57:48.559Z,10.80
2023-03-26T14:00:21.545Z,10.80
2023-03-26T14:02:57.292Z,10.70
2023-03-26T14:05:30.506Z,10.70
2023-03-26T14:08:22.361Z,10.70
2023-03-26T14:10:54.057Z,10.70
2023-03-26T14:13:31.336Z,10.90
2023-03-26T14:16:05.732Z,11.00
2023-03-26T14:18:48.103Z,11.10
2023-03-26T14:21:41.446Z,11.10
2023-03-26T14:24:33.203Z,11.20
2023-03-26T14:27:24.496Z,11.30
2023-03-26T14:30:04.596Z,11.40
2023-03-26T14:32:52.092Z,11.40
2023-03-26T14:35:35.170Z,11.40
2023-03-26T14:38:32.873Z,11.40
2023-03-26T14:41:13.079Z,11.40
2023-03-26T14:44:12.520Z,11.40
2023-03-26T14:46:56.030Z,11.30
2023-03-26T14:49:51.626Z,11.10
2023-03-26T14:52:24.670Z,11.00
2023-03-26T14:54:55.914Z,10.90
2023-03-26T14:57:58.739Z,10.90
2023-03-26T15:00:51.079Z,11.00
2023-03-26T15:03:58.352Z,11.00
2023-03-26T15:07:15.989Z,10.90
2023-03-26T15:10:11.493Z,11.00
2023-03-26T15:12:51.851Z,11.10
2023-03-26T15:15:58.178Z,11.10
2023-03-26T15:19:06.930Z,11.00
2023-03-26T15:22:04.436Z,11.00
2023-03-26T15:25:08.628Z,11.00
2023-03-26T15:27:57.347Z,11.10
2023-03-26T15:30:59.695Z,11.00
2023-03-26T15:34:20.013Z,10.90
2023-03-26T15:37:32.186Z,10.80
2023-03-26T15:40:29.291Z,10.60
2023-03-26T15:43:05.544Z,10.40
2023-03-26T15:45:35.468Z,10.30
2023-03-26T15:48:39.359Z,10.20
2023-03-26T15:51:47.357Z,10.10
2023-03-26T15:54:25.632Z,10.10
2023-03-26T15:57:09.008Z,10.20
2023-03-26T15:59:47.311Z,10.20
2023-03-26T16:02:28.226Z,10.20
2023-03-26T16:04:58.416Z,10.10
2023-03-26T16:07:48.493Z,10.00
2023-03-26T16:10:28.612Z,9.90
2023-03-26T16:13:25.104Z,9.90
2023-03-26T16:15:56.411Z,9.80
2023-03-26T16:18:31.498Z,9.70
2023-03-26T16:21:47.065Z,9.60
2023-03-26T16:24:24.431Z,9.50
2023-03-26T16:27:30.267Z,9.40
2023-03-26T16:30:30.610Z,9.30
2023-03-26T16:33:14.018Z,9.20
2023-03-26T16:36:02.593Z,9.20
2023-03-26T16:38:50.260Z,9.10
2023-03-26T16:41:19.291Z,9.20
2023-03-26T16:44:13.055Z,9.20
2023-03-26T16:46:48.934Z,9.30
2023-03-26T16:49:25.462Z,9.40
2023-03-26T16:52:09.522Z,9.50
2023-03-26T16:54:48.114Z,9.50
2023-03-26T16:57:27.098Z,9.50
2023-03-26T17:00:13.318Z,9.40
2023-03-26T17:02:52.219Z,9.30
2023-03-26T17:05:34.301Z,9.10
2023-03-26T17:08:11.225Z,8.90
2023-03-26T17:10:44.404Z,8.90
2023-03-26T17:13:23.321Z,8.70
2023-03-26T17:16:01.834Z,8.70
2023-03-26T17:18:38.903Z,8.60
2023-03-26T17:21:16.095Z,8.50
2023-03-26T17:24:05.397Z,8.40
2023-03-26T17:26:44.315Z,8.30
2023-03-26T17:29:28.509Z,8.10
2023-03-26T17:32:08.523Z,8.00
2023-03-26T17:34:52.852Z,8.00
2023-03-26T17:37:35.159Z,7.90
2023-03-26T17:40:48.977Z,7.90
2023-03-26T17:43:50.165Z,7.90
2023-03-26T17:46:33.011Z,7.80
2023-03-26T17:49:04.686Z,7.70
2023-03-26T17:51:46.618Z,7.80
2023-03-26T17:54:29.781Z,7.70
2023-03-26T17:57:02.731Z,7.80
2023-03-26T17:59:31.811Z,7.70
2023-03-26T18:02:00.849Z,7.70
2023-03-26T18:04:38.689Z,7.60
2023-03-26T18:07:29.244Z,7.60
2023-03-26T18:10:17.968Z,7.60
2023-03-26T18:13:08.803Z,7.50
2023-03-26T18:15:47.884Z,7.40
2023-03-26T18:18:19.860Z,7.30
2023-03-26T18:20:51.564Z,7.20
2023-03-26T18:23:25.249Z,7.20
2023-03-26T18:25:57.854Z,7.10
2023-03-26T18:28:41.261Z,7.00
2023-03-26T18:31:17.069Z,7.00
2023-03-26T18:33:45.439Z,6.90
2023-03-26T18:36:14.994Z,6.90
2023-03-26T18:38:42.966Z,6.90
2023-03-26T18:41:27.519Z,6.90
2023-03-26T18:43:55.534Z,6.90
2023-03-26T18:46:38.421Z,7.00
2023-03-26T18:49:07.000Z,7.00
2023-03-26T18:51:43.235Z,7.00
2023-03-26T18:54:20.161Z,7.00
2023-03-26T18:56:52.112Z,7.00
2023-03-26T18:59:28.016Z,7.00
2023-03-26T19:01:59.605Z,7.10
2023-03-26T19:04:28.082Z,7.00
2023-03-26T19:06:59.902Z,7.10
2023-03-26T19:09:32.009Z,7.00
2023-03-26T19:12:08.325Z,7.00
2023-03-26T19:14:51.489Z,7.10
2023-03-26T19:17:21.383Z,7.10
2023-03-26T19:19:50.012Z,7.10
2023-03-26T19:22:17.188Z,7.10
2023-03-26T19:24:44.359Z,7.00
2023-03-26T19:27:14.150Z,7.00
2023-03-26T19:29:46.186Z,7.00
2023-03-26T19:32:19.028Z,6.90
2023-03-26T19:34:47.130Z,6.80
2023-03-26T19:37:22.823Z,6.80
2023-03-26T19:39:51.532Z,6.70
2023-03-26T19:42:27.598Z,6.60
2023-03-26T19:45:16.685Z,6.50
2023-03-26T19:48:00.137Z,6.50
2023-03-26T19:50:34.016Z,6.60
2023-03-26T19:53:18.757Z,6.60
2023-03-26T19:55:57.348Z,6.60
2023-03-26T19:58:27.303Z,6.60
2023-03-26T20:00:56.666Z,6.60
2023-03-26T20:03:28.021Z,6.50
2023-03-26T20:05:55.217Z,6.40
2023-03-26T20:08:26.873Z,6.40
2023-03-26T20:10:55.593Z,6.40
2023-03-26T20:13:22.921Z,6.30
2023-03-26T20:16:05.902Z,6.30
2023-03-26T20:18:34.022Z,6.30
2023-03-26T20:21:01.059Z,6.30
2023-03-26T20:23:31.030Z,6.30
2023-03-26T20:26:00.467Z,6.30
2023-03-26T20:28:27.476Z,6.30
2023-03-26T20:30:56.342Z,6.30
2023-03-26T20:33:25.765Z,6.30
2023-03-26T20:35:56.870Z,6.30
2023-03-26T20:38:36.720Z,6.30
2023-03-26T20:41:06.386Z,6.30
2023-03-26T20:43:33.413Z,6.40
2023-03-26T20:46:01.740Z,6.30
2023-03-26T20:48:28.570Z,6.40
2023-03-26T20:50:57.014Z,6.40
2023-03-26T20:53:24.238Z,6.40
2023-03-26T20:55:51.739Z,6.40
2023-03-26T20:58:31.180Z,6.40
2023-03-26T21:01:01.937Z,6.40
2023-03-26T21:03:29.332Z,6.40
2023-03-26T21:06:02.500Z,6.30
2023-03-26T21:08:37.099Z,6.30
2023-03-26T21:11:12.604Z,6.20
2023-03-26T21:13:44.911Z,6.20
2023-03-26T21:16:14.506Z,6.20
2023-03-26T21:18:45.479Z,6.10
2023-03-26T21:21:34.038Z,6.10
2023-03-26T21:24:07.941Z,6.10
2023-03-26T21:26:43.616Z,6.10
2023-03-26T21:29:13.482Z,6.10
2023-03-26T21:31:42.588Z,6.10
2023-03-26T21:34:13.645Z,6.10
2023-03-26T21:36:41.939Z,6.10
2023-03-26T21:39:10.942Z,6.10
2023-03-26T21:41:43.994Z,6.10
2023-03-26T21:44:10.984Z,6.10
2023-03-26T21:46:43.472Z,6.10
2023-03-26T21:49:11.171Z,6.10
2023-03-26T21:51:39.219Z,6.10
2023-03-26T21:54:11.653Z,6.10
2023-03-26T21:56:47.186Z,6.10
2023-03-26T21:59:23.012Z,6.00
2023-03-26T22:02:00.495Z,6.00
2023-03-26T22:04:36.747Z,6.00
2023-03-26T22:07:10.400Z,5.90
2023-03-26T22:09:38.102Z,5.90
2023-03-26T22:12:05.343Z,5.90
2023-03-26T22:14:33.600Z,5.90
2023-03-26T22:17:03.240Z,5.90
2023-03-26T22:19:30.557Z,5.90
2023-03-26T22:21:58.302Z,5.80
2023-03-26T22:24:26.134Z,5.70
2023-03-26T22:26:58.936Z,5.70
2023-03-26T22:29:25.776Z,5.70
2023-03-26T22:31:52.955Z,5.60
2023-03-26T22:34:23.055Z,5.60
2023-03-26T22:36:49.948Z,5.60
2023-03-26T22:39:17.238Z,5.60
2023-03-26T22:41:44.178Z,5.60
2023-03-26T22:44:19.909Z,5.60
2023-03-26T22:46:53.536Z,5.60
2023-03-26T22:49:24.281Z,5.60
2023-03-26T22:51:51.577Z,5.60
2023-03-26T22:54:18.934Z,5.60
2023-03-26T22:56:46.080Z,5.60
2023-03-26T22:59:13.234Z,5.60
2023-03-26T23:01:41.368Z,5.60
2023-03-26T23:04:08.454Z,5.60
2023-03-26T23:06:38.308Z,5.50
2023-03-26T23:09:07.050Z,5.40
2023-03-26T23:11:36.835Z,5.40
2023-03-26T23:14:13.281Z,5.30
2023-03-26T23:16:40.482Z,5.30
2023-03-26T23:19:07.797Z,5.20
2023-03-26T23:21:36.676Z,5.20
2023-03-26T23:24:06.931Z,5.10
2023-03-26T23:26:43.928Z,5.10
2023-03-26T23:29:17.246Z,5.10
2023-03-26T23:31:44.312Z,5.00
2023-03-26T23:34:13.533Z,4.90
2023-03-26T23:36:44.833Z,4.90
2023-03-26T23:39:13.015Z,4.90
2023-03-26T23:41:40.203Z,4.80
2023-03-26T23:44:07.600Z,4.70
2023-03-26T23:46:34.553Z,4.60
2023-03-26T23:49:03.283Z,4.60
2023-03-26T23:51:31.091Z,4.50
2023-03-26T23:53:59.826Z,4.50
2023-03-26T23:56:30.056Z,4.40
2023-03-26T23:58:57.258Z,4.40
